createdAt,value
2022-09-11T00:00:02.996Z,100.00
2022-09-11T00:05:14.582Z,100.00
2022-09-11T00:10:16.535Z,100.00
2022-09-11T00:15:18.280Z,100.00
2022-09-11T00:20:19.941Z,100.00
2022-09-11T00:25:21.580Z,100.00
2022-09-11T00:30:23.256Z,100.00
2022-09-11T00:35:25.902Z,100.00
2022-09-11T00:40:27.587Z,100.00
2022-09-11T00:45:29.291Z,100.00
2022-09-11T00:50:32.742Z,100.00
2022-09-11T00:55:37.934Z,100.00
2022-09-11T01:00:43.286Z,100.00
2022-09-11T01:05:48.316Z,100.00
2022-09-11T01:11:20.468Z,100.00
2022-09-11T01:16:43.849Z,100.00
2022-09-11T01:21:52.659Z,100.00
2022-09-11T01:27:19.349Z,100.00
2022-09-11T01:32:27.860Z,100.00
2022-09-11T01:37:56.164Z,100.00
2022-09-11T01:43:06.246Z,100.00
2022-09-11T01:48:09.925Z,100.00
2022-09-11T01:53:14.657Z,100.00
2022-09-11T01:58:24.829Z,100.00
2022-09-11T02:03:29.976Z,100.00
2022-09-11T02:08:38.210Z,100.00
2022-09-11T02:13:50.041Z,100.00
2022-09-11T02:19:04.794Z,100.00
2022-09-11T02:24:06.943Z,100.00
2022-09-11T02:29:08.828Z,100.00
2022-09-11T02:34:14.567Z,100.00
2022-09-11T02:39:46.385Z,100.00
2022-09-11T02:45:07.481Z,100.00
2022-09-11T02:50:18.963Z,100.00
2022-09-11T02:55:39.895Z,100.00
2022-09-11T03:00:42.549Z,100.00
2022-09-11T03:05:44.466Z,100.00
2022-09-11T03:10:46.773Z,100.00
2022-09-11T03:15:48.679Z,100.00
2022-09-11T03:20:51.889Z,100.00
2022-09-11T03:25:55.596Z,100.00
2022-09-11T03:30:58.259Z,100.00
2022-09-11T03:36:01.233Z,100.00
2022-09-11T03:41:03.531Z,100.00
2022-09-11T03:46:06.833Z,100.00
2022-09-11T03:51:08.922Z,100.00
2022-09-11T03:56:12.104Z,100.00
2022-09-11T04:01:20.004Z,100.00
2022-09-11T04:06:23.600Z,100.00
2022-09-11T04:11:25.384Z,100.00
2022-09-11T04:16:27.110Z,100.00
2022-09-11T04:21:31.242Z,100.00
2022-09-11T04:26:34.200Z,100.00
2022-09-11T04:31:44.068Z,100.00
2022-09-11T04:36:48.624Z,100.00
2022-09-11T04:41:55.947Z,100.00
2022-09-11T04:46:57.811Z,100.00
2022-09-11T04:52:05.895Z,100.00
2022-09-11T04:57:09.201Z,100.00
2022-09-11T05:02:12.593Z,100.00
2022-09-11T05:07:17.661Z,100.00
2022-09-11T05:12:22.937Z,100.00
2022-09-11T05:17:24.534Z,100.00
2022-09-11T05:22:26.520Z,100.00
2022-09-11T05:27:31.727Z,100.00
2022-09-11T05:32:33.465Z,100.00
2022-09-11T05:37:36.807Z,100.00
2022-09-11T05:42:38.795Z,100.00
2022-09-11T05:47:40.449Z,100.00
2022-09-11T05:52:42.180Z,100.00
2022-09-11T05:57:43.878Z,100.00
2022-09-11T06:02:48.976Z,98.49
2022-09-11T06:07:52.263Z,98.55
2022-09-11T06:12:54.047Z,99.90
2022-09-11T06:17:56.188Z,100.00
2022-09-11T06:22:57.914Z,100.00
2022-09-11T06:28:01.639Z,100.00
2022-09-11T06:33:03.922Z,100.00
2022-09-11T06:38:05.732Z,100.00
2022-09-11T06:43:08.218Z,100.00
2022-09-11T06:48:09.923Z,100.00
2022-09-11T06:53:14.260Z,100.00
2022-09-11T06:58:23.156Z,100.00
2022-09-11T07:03:25.307Z,99.76
2022-09-11T07:08:28.914Z,99.93
2022-09-11T07:13:36.742Z,98.96
2022-09-11T07:18:42.444Z,98.39
2022-09-11T07:23:50.818Z,97.32
2022-09-11T07:28:54.748Z,99.17
2022-09-11T07:33:57.668Z,100.00
2022-09-11T07:39:01.378Z,100.00
2022-09-11T07:44:25.910Z,96.75
2022-09-11T07:49:28.292Z,92.90
2022-09-11T07:54:31.095Z,83.90
2022-09-11T07:59:33.380Z,65.54
2022-09-11T08:04:37.180Z,75.57
2022-09-11T08:09:39.949Z,78.49
2022-09-11T08:14:43.305Z,71.49
2022-09-11T08:19:52.058Z,84.81
2022-09-11T08:24:53.812Z,78.82
2022-09-11T08:29:55.838Z,84.84
2022-09-11T08:34:57.738Z,84.81
2022-09-11T08:39:59.983Z,90.12
2022-09-11T08:45:04.206Z,96.82
2022-09-11T08:50:16.559Z,100.00
2022-09-11T08:55:43.767Z,100.00
2022-09-11T09:00:58.496Z,100.00
2022-09-11T09:06:25.420Z,99.17
2022-09-11T09:11:59.426Z,95.99
2022-09-11T09:17:14.780Z,95.73
2022-09-11T09:22:27.440Z,99.21
2022-09-11T09:27:34.857Z,99.48
2022-09-11T09:32:43.921Z,98.11
2022-09-11T09:37:45.946Z,96.66
2022-09-11T09:42:53.507Z,100.00
2022-09-11T09:47:55.130Z,100.00
2022-09-11T09:53:03.972Z,100.00
2022-09-11T09:58:07.219Z,100.00
2022-09-11T10:03:23.307Z,99.16
2022-09-11T10:08:30.493Z,99.70
2022-09-11T10:13:34.961Z,100.00
2022-09-11T10:18:40.265Z,98.60
2022-09-11T10:24:02.932Z,98.40
2022-09-11T10:29:14.181Z,100.00
2022-09-11T10:34:20.300Z,98.14
2022-09-11T10:39:25.117Z,99.34
2022-09-11T10:44:28.729Z,100.00
2022-09-11T10:49:30.532Z,100.00
2022-09-11T10:54:58.543Z,100.00
2022-09-11T11:00:13.568Z,98.71
2022-09-11T11:05:32.431Z,97.04
2022-09-11T11:10:47.261Z,95.76
2022-09-11T11:16:17.761Z,93.04
2022-09-11T11:21:35.270Z,92.48
2022-09-11T11:26:51.117Z,95.38
2022-09-11T11:32:17.605Z,96.65
2022-09-11T11:37:24.722Z,97.52
2022-09-11T11:42:35.469Z,95.28
2022-09-11T11:47:45.852Z,96.14
2022-09-11T11:52:59.347Z,99.69
2022-09-11T11:58:12.687Z,100.00
2022-09-11T12:03:30.032Z,99.28
2022-09-11T12:08:31.730Z,99.06
2022-09-11T12:13:43.207Z,98.99
2022-09-11T12:19:19.792Z,98.46
2022-09-11T12:24:43.227Z,99.37
2022-09-11T12:29:56.803Z,99.30
2022-09-11T12:35:02.961Z,98.12
2022-09-11T12:40:19.175Z,98.62
2022-09-11T12:45:36.848Z,99.93
2022-09-11T12:50:39.025Z,100.00
2022-09-11T12:56:16.669Z,97.68
2022-09-11T13:01:25.118Z,96.48
2022-09-11T13:06:40.919Z,94.79
2022-09-11T13:11:45.603Z,94.52
2022-09-11T13:16:52.516Z,86.58
2022-09-11T13:21:55.144Z,76.51
2022-09-11T13:27:14.006Z,73.73
2022-09-11T13:32:17.375Z,77.00
2022-09-11T13:37:37.389Z,75.51
2022-09-11T13:42:40.395Z,75.63
2022-09-11T13:47:42.364Z,72.70
2022-09-11T13:52:45.660Z,74.45
2022-09-11T13:57:53.106Z,75.41
2022-09-11T14:02:54.881Z,75.78
2022-09-11T14:08:01.481Z,80.48
2022-09-11T14:13:24.699Z,80.58
2022-09-11T14:18:46.162Z,82.16
2022-09-11T14:23:55.109Z,79.91
2022-09-11T14:29:03.313Z,79.08
2022-09-11T14:34:11.135Z,78.93
2022-09-11T14:39:15.756Z,78.51
2022-09-11T14:44:17.960Z,77.93
2022-09-11T14:49:19.641Z,80.37
2022-09-11T14:54:22.860Z,79.78
2022-09-11T14:59:24.914Z,76.73
2022-09-11T15:04:27.445Z,75.21
2022-09-11T15:09:29.246Z,74.70
2022-09-11T15:14:55.041Z,75.05
2022-09-11T15:19:54.137Z,75.23
2022-09-11T15:24:56.639Z,76.41
2022-09-11T15:29:58.267Z,79.49
2022-09-11T15:34:59.964Z,80.89
2022-09-11T15:40:02.004Z,81.24
2022-09-11T15:45:04.244Z,81.66
2022-09-11T15:50:06.519Z,81.28
2022-09-11T15:55:09.560Z,83.43
2022-09-11T16:00:12.067Z,82.49
2022-09-11T16:05:14.541Z,82.94
2022-09-11T16:10:16.169Z,81.93
2022-09-11T16:15:18.266Z,82.37
2022-09-11T16:20:20.263Z,83.82
2022-09-11T16:25:22.067Z,83.41
2022-09-11T16:30:42.483Z,84.34
2022-09-11T16:35:45.388Z,85.08
2022-09-11T16:40:47.018Z,86.15
2022-09-11T16:45:52.672Z,87.08
2022-09-11T16:50:55.241Z,87.26
2022-09-11T16:55:56.895Z,87.46
2022-09-11T17:00:58.886Z,88.53
2022-09-11T17:06:00.541Z,88.94
2022-09-11T17:11:02.545Z,89.76
2022-09-11T17:16:06.793Z,90.23
2022-09-11T17:21:09.827Z,91.11
2022-09-11T17:26:14.064Z,92.21
2022-09-11T17:31:19.168Z,92.57
2022-09-11T17:36:21.785Z,93.41
2022-09-11T17:41:23.472Z,94.84
2022-09-11T17:46:25.213Z,96.51
2022-09-11T17:51:27.923Z,95.60
2022-09-11T17:56:33.262Z,96.57
2022-09-11T18:01:34.961Z,96.75
2022-09-11T18:06:38.494Z,97.24
2022-09-11T18:11:43.130Z,97.34
2022-09-11T18:16:47.309Z,97.04
2022-09-11T18:21:50.510Z,97.43
2022-09-11T18:26:58.570Z,97.65
2022-09-11T18:32:03.496Z,97.38
2022-09-11T18:37:05.266Z,97.60
2022-09-11T18:42:07.178Z,97.17
2022-09-11T18:47:08.784Z,96.82
2022-09-11T18:52:10.868Z,97.05
2022-09-11T18:57:12.448Z,96.68
2022-09-11T19:02:14.482Z,96.99
2022-09-11T19:07:16.140Z,97.57
2022-09-11T19:12:17.765Z,96.35
2022-09-11T19:17:19.479Z,95.70
2022-09-11T19:22:22.881Z,95.48
2022-09-11T19:27:26.236Z,94.10
2022-09-11T19:32:28.195Z,94.97
2022-09-11T19:37:30.054Z,97.08
2022-09-11T19:42:32.494Z,100.00
2022-09-11T19:47:34.148Z,100.00
2022-09-11T19:52:35.744Z,100.00
2022-09-11T19:57:37.324Z,100.00
2022-09-11T20:02:39.124Z,100.00
2022-09-11T20:07:40.703Z,100.00
2022-09-11T20:12:42.310Z,100.00
2022-09-11T20:17:44.858Z,100.00
2022-09-11T20:22:46.779Z,100.00
2022-09-11T20:27:48.820Z,100.00
2022-09-11T20:32:50.725Z,100.00
2022-09-11T20:37:55.471Z,100.00
2022-09-11T20:42:57.105Z,100.00
2022-09-11T20:48:00.493Z,100.00
2022-09-11T20:53:02.310Z,100.00
2022-09-11T20:58:05.849Z,100.00
2022-09-11T21:03:07.437Z,100.00
2022-09-11T21:08:09.050Z,100.00
2022-09-11T21:13:14.671Z,100.00
2022-09-11T21:18:16.413Z,100.00
2022-09-11T21:23:18.031Z,100.00
2022-09-11T21:28:19.723Z,100.00
2022-09-11T21:33:21.390Z,100.00
2022-09-11T21:38:24.828Z,100.00
2022-09-11T21:43:27.827Z,100.00
2022-09-11T21:48:33.641Z,100.00
2022-09-11T21:53:38.353Z,100.00
2022-09-11T21:58:39.935Z,100.00
2022-09-11T22:03:41.738Z,100.00
2022-09-11T22:08:44.557Z,100.00
2022-09-11T22:13:47.748Z,100.00
2022-09-11T22:18:52.927Z,100.00
2022-09-11T22:23:55.286Z,100.00
2022-09-11T22:29:00.216Z,100.00
2022-09-11T22:34:02.080Z,100.00
2022-09-11T22:39:05.469Z,100.00
2022-09-11T22:44:08.164Z,100.00
2022-09-11T22:49:09.995Z,100.00
2022-09-11T22:54:13.636Z,100.00
2022-09-11T22:59:15.242Z,100.00
2022-09-11T23:04:17.026Z,100.00
2022-09-11T23:09:18.651Z,100.00
2022-09-11T23:14:20.259Z,100.00
2022-09-11T23:19:22.513Z,100.00
2022-09-11T23:24:24.164Z,100.00
2022-09-11T23:29:25.844Z,100.00
2022-09-11T23:34:27.501Z,100.00
2022-09-11T23:39:29.125Z,100.00
2022-09-11T23:44:30.786Z,100.00
2022-09-11T23:49:36.198Z,100.00
2022-09-11T23:54:38.112Z,100.00
2022-09-11T23:59:39.705Z,100.00
